sensor_id;sensor_type;location;lat;lon;timestamp;P1;durP1;ratioP1;P2;durP2;ratioP2
50363;SDS011;36272;59.400;17.982;2023-06-01T00:04:47;2.85;;;0.90;;
50363;SDS011;36272;59.400;17.982;2023-06-01T00:10:19;2.70;;;0.80;;
50363;SDS011;36272;59.400;17.982;2023-06-01T00:15:27;3.25;;;0.90;;
50363;SDS011;36272;59.400;17.982;2023-06-01T00:20:54;1.23;;;0.70;;
50363;SDS011;36272;59.400;17.982;2023-06-01T00:25:57;4.63;;;0.98;;
50363;SDS011;36272;59.400;17.982;2023-06-01T00:31:08;2.20;;;0.98;;
50363;SDS011;36272;59.400;17.982;2023-06-01T00:36:10;4.80;;;0.93;;
50363;SDS011;36272;59.400;17.982;2023-06-01T00:41:12;3.13;;;0.88;;
50363;SDS011;36272;59.400;17.982;2023-06-01T00:46:17;2.70;;;0.90;;
50363;SDS011;36272;59.400;17.982;2023-06-01T00:51:21;0.95;;;0.55;;
50363;SDS011;36272;59.400;17.982;2023-06-01T00:56:39;4.40;;;0.90;;
50363;SDS011;36272;59.400;17.982;2023-06-01T01:01:50;5.80;;;1.33;;
50363;SDS011;36272;59.400;17.982;2023-06-01T01:07:21;9.43;;;1.17;;
50363;SDS011;36272;59.400;17.982;2023-06-01T01:18:13;1.48;;;0.80;;
50363;SDS011;36272;59.400;17.982;2023-06-01T01:23:27;2.33;;;0.57;;
50363;SDS011;36272;59.400;17.982;2023-06-01T01:28:46;2.65;;;0.70;;
50363;SDS011;36272;59.400;17.982;2023-06-01T01:34:25;7.63;;;0.90;;
50363;SDS011;36272;59.400;17.982;2023-06-01T01:53:07;1.77;;;0.70;;
50363;SDS011;36272;59.400;17.982;2023-06-01T01:58:22;4.85;;;0.82;;
50363;SDS011;36272;59.400;17.982;2023-06-01T02:03:38;1.23;;;0.75;;
50363;SDS011;36272;59.400;17.982;2023-06-01T02:08:58;2.75;;;0.60;;
50363;SDS011;36272;59.400;17.982;2023-06-01T02:14:02;3.28;;;0.60;;
50363;SDS011;36272;59.400;17.982;2023-06-01T02:19:12;3.47;;;0.70;;
50363;SDS011;36272;59.400;17.982;2023-06-01T02:24:16;5.22;;;0.40;;
50363;SDS011;36272;59.400;17.982;2023-06-01T02:29:24;2.47;;;0.70;;
50363;SDS011;36272;59.400;17.982;2023-06-01T02:34:33;2.55;;;0.60;;
50363;SDS011;36272;59.400;17.982;2023-06-01T02:39:43;1.48;;;0.60;;
50363;SDS011;36272;59.400;17.982;2023-06-01T02:44:44;2.05;;;0.30;;
50363;SDS011;36272;59.400;17.982;2023-06-01T02:49:49;4.95;;;0.40;;
50363;SDS011;36272;59.400;17.982;2023-06-01T02:54:59;0.65;;;0.60;;
50363;SDS011;36272;59.400;17.982;2023-06-01T03:05:30;2.17;;;0.60;;
50363;SDS011;36272;59.400;17.982;2023-06-01T03:10:44;2.42;;;0.55;;
50363;SDS011;36272;59.400;17.982;2023-06-01T03:15:48;1.63;;;0.38;;
50363;SDS011;36272;59.400;17.982;2023-06-01T03:21:00;4.95;;;0.50;;
50363;SDS011;36272;59.400;17.982;2023-06-01T03:26:05;1.17;;;0.45;;
50363;SDS011;36272;59.400;17.982;2023-06-01T03:31:13;2.33;;;0.43;;
50363;SDS011;36272;59.400;17.982;2023-06-01T03:36:15;3.17;;;0.77;;
50363;SDS011;36272;59.400;17.982;2023-06-01T03:46:52;8.20;;;0.70;;
50363;SDS011;36272;59.400;17.982;2023-06-01T03:51:54;9.13;;;0.80;;
50363;SDS011;36272;59.400;17.982;2023-06-01T03:56:56;2.35;;;0.75;;
50363;SDS011;36272;59.400;17.982;2023-06-01T04:01:58;3.50;;;0.88;;
50363;SDS011;36272;59.400;17.982;2023-06-01T04:07:04;2.10;;;0.80;;
50363;SDS011;36272;59.400;17.982;2023-06-01T04:12:16;4.45;;;1.00;;
50363;SDS011;36272;59.400;17.982;2023-06-01T04:17:18;6.95;;;1.02;;
50363;SDS011;36272;59.400;17.982;2023-06-01T04:22:19;3.00;;;0.80;;
50363;SDS011;36272;59.400;17.982;2023-06-01T04:27:21;2.28;;;0.70;;
50363;SDS011;36272;59.400;17.982;2023-06-01T04:32:35;2.53;;;0.95;;
50363;SDS011;36272;59.400;17.982;2023-06-01T04:37:55;2.35;;;0.85;;
50363;SDS011;36272;59.400;17.982;2023-06-01T04:42:59;3.67;;;1.15;;
50363;SDS011;36272;59.400;17.982;2023-06-01T04:48:06;2.08;;;0.85;;
50363;SDS011;36272;59.400;17.982;2023-06-01T04:53:11;4.93;;;1.00;;
50363;SDS011;36272;59.400;17.982;2023-06-01T04:58:39;2.22;;;0.95;;
50363;SDS011;36272;59.400;17.982;2023-06-01T05:03:46;3.78;;;1.20;;
50363;SDS011;36272;59.400;17.982;2023-06-01T05:08:53;6.88;;;1.00;;
50363;SDS011;36272;59.400;17.982;2023-06-01T05:13:58;2.60;;;0.95;;
50363;SDS011;36272;59.400;17.982;2023-06-01T05:19:02;10.75;;;1.10;;
50363;SDS011;36272;59.400;17.982;2023-06-01T05:24:04;3.17;;;1.00;;
50363;SDS011;36272;59.400;17.982;2023-06-01T05:29:07;5.63;;;1.40;;
50363;SDS011;36272;59.400;17.982;2023-06-01T05:34:09;6.25;;;1.40;;
50363;SDS011;36272;59.400;17.982;2023-06-01T05:39:10;6.35;;;1.10;;
50363;SDS011;36272;59.400;17.982;2023-06-01T05:44:12;3.85;;;1.10;;
50363;SDS011;36272;59.400;17.982;2023-06-01T05:55:35;2.67;;;0.98;;
50363;SDS011;36272;59.400;17.982;2023-06-01T06:00:52;6.90;;;1.23;;
50363;SDS011;36272;59.400;17.982;2023-06-01T06:11:43;6.07;;;1.30;;
50363;SDS011;36272;59.400;17.982;2023-06-01T06:17:03;2.65;;;1.00;;
50363;SDS011;36272;59.400;17.982;2023-06-01T06:22:25;9.10;;;1.33;;
50363;SDS011;36272;59.400;17.982;2023-06-01T06:27:26;3.08;;;1.13;;
50363;SDS011;36272;59.400;17.982;2023-06-01T06:32:28;3.97;;;1.40;;
50363;SDS011;36272;59.400;17.982;2023-06-01T06:37:35;3.42;;;1.38;;
50363;SDS011;36272;59.400;17.982;2023-06-01T06:42:44;1.60;;;0.98;;
50363;SDS011;36272;59.400;17.982;2023-06-01T06:47:53;8.20;;;1.35;;
50363;SDS011;36272;59.400;17.982;2023-06-01T06:52:57;8.73;;;1.35;;
50363;SDS011;36272;59.400;17.982;2023-06-01T06:58:01;3.67;;;0.77;;
50363;SDS011;36272;59.400;17.982;2023-06-01T07:03:05;8.77;;;1.42;;
50363;SDS011;36272;59.400;17.982;2023-06-01T07:08:07;9.38;;;1.40;;
50363;SDS011;36272;59.400;17.982;2023-06-01T07:13:09;5.07;;;1.55;;
50363;SDS011;36272;59.400;17.982;2023-06-01T07:18:23;4.80;;;1.20;;
50363;SDS011;36272;59.400;17.982;2023-06-01T07:23:49;4.75;;;1.20;;
50363;SDS011;36272;59.400;17.982;2023-06-01T07:29:37;6.53;;;1.30;;
50363;SDS011;36272;59.400;17.982;2023-06-01T07:54:16;3.38;;;1.52;;
50363;SDS011;36272;59.400;17.982;2023-06-01T08:06:02;2.33;;;1.45;;
50363;SDS011;36272;59.400;17.982;2023-06-01T08:11:07;28.85;;;2.97;;
50363;SDS011;36272;59.400;17.982;2023-06-01T08:56:22;7.93;;;1.50;;
50363;SDS011;36272;59.400;17.982;2023-06-01T09:53:42;4.30;;;1.52;;
50363;SDS011;36272;59.400;17.982;2023-06-01T09:58:47;9.45;;;2.20;;
50363;SDS011;36272;59.400;17.982;2023-06-01T10:04:02;6.25;;;1.30;;
50363;SDS011;36272;59.400;17.982;2023-06-01T10:09:10;3.28;;;0.93;;
50363;SDS011;36272;59.400;17.982;2023-06-01T10:14:19;5.20;;;1.48;;
50363;SDS011;36272;59.400;17.982;2023-06-01T10:19:22;11.25;;;1.40;;
50363;SDS011;36272;59.400;17.982;2023-06-01T10:24:25;6.50;;;1.30;;
50363;SDS011;36272;59.400;17.982;2023-06-01T10:40:29;3.30;;;1.00;;
50363;SDS011;36272;59.400;17.982;2023-06-01T10:45:40;5.32;;;1.52;;
50363;SDS011;36272;59.400;17.982;2023-06-01T10:51:43;4.82;;;1.20;;
50363;SDS011;36272;59.400;17.982;2023-06-01T10:57:31;2.38;;;0.98;;
50363;SDS011;36272;59.400;17.982;2023-06-01T11:02:49;6.90;;;1.58;;
50363;SDS011;36272;59.400;17.982;2023-06-01T11:27:09;3.42;;;1.40;;
50363;SDS011;36272;59.400;17.982;2023-06-01T11:38:47;2.17;;;0.85;;
50363;SDS011;36272;59.400;17.982;2023-06-01T11:57:17;2.28;;;1.00;;
50363;SDS011;36272;59.400;17.982;2023-06-01T12:09:08;6.68;;;1.45;;
50363;SDS011;36272;59.400;17.982;2023-06-01T12:15:17;3.78;;;0.80;;
50363;SDS011;36272;59.400;17.982;2023-06-01T12:20:31;8.07;;;0.85;;
50363;SDS011;36272;59.400;17.982;2023-06-01T12:26:01;2.78;;;0.85;;
50363;SDS011;36272;59.400;17.982;2023-06-01T12:31:22;2.35;;;1.00;;
50363;SDS011;36272;59.400;17.982;2023-06-01T12:36:28;6.68;;;1.10;;
50363;SDS011;36272;59.400;17.982;2023-06-01T12:41:49;3.58;;;1.50;;
50363;SDS011;36272;59.400;17.982;2023-06-01T12:46:56;2.83;;;0.85;;
50363;SDS011;36272;59.400;17.982;2023-06-01T12:51:59;7.85;;;1.08;;
50363;SDS011;36272;59.400;17.982;2023-06-01T12:57:11;2.15;;;0.90;;
50363;SDS011;36272;59.400;17.982;2023-06-01T13:02:14;1.17;;;0.73;;
50363;SDS011;36272;59.400;17.982;2023-06-01T13:07:25;3.00;;;0.82;;
50363;SDS011;36272;59.400;17.982;2023-06-01T13:12:26;5.60;;;1.13;;
50363;SDS011;36272;59.400;17.982;2023-06-01T13:17:35;1.70;;;1.08;;
50363;SDS011;36272;59.400;17.982;2023-06-01T13:22:39;4.65;;;1.25;;
50363;SDS011;36272;59.400;17.982;2023-06-01T13:27:59;2.65;;;1.00;;
50363;SDS011;36272;59.400;17.982;2023-06-01T13:33:08;4.40;;;1.10;;
50363;SDS011;36272;59.400;17.982;2023-06-01T13:49:30;1.23;;;0.80;;
50363;SDS011;36272;59.400;17.982;2023-06-01T13:54:39;6.03;;;0.90;;
50363;SDS011;36272;59.400;17.982;2023-06-01T13:59:41;2.95;;;0.70;;
50363;SDS011;36272;59.400;17.982;2023-06-01T14:04:43;1.20;;;0.75;;
50363;SDS011;36272;59.400;17.982;2023-06-01T14:09:47;2.67;;;1.20;;
50363;SDS011;36272;59.400;17.982;2023-06-01T14:14:48;4.10;;;0.95;;
50363;SDS011;36272;59.400;17.982;2023-06-01T14:19:53;1.98;;;0.82;;
50363;SDS011;36272;59.400;17.982;2023-06-01T14:24:58;3.63;;;0.82;;
50363;SDS011;36272;59.400;17.982;2023-06-01T14:30:00;1.80;;;0.90;;
50363;SDS011;36272;59.400;17.982;2023-06-01T14:35:10;5.88;;;1.00;;
50363;SDS011;36272;59.400;17.982;2023-06-01T14:40:16;2.40;;;0.95;;
50363;SDS011;36272;59.400;17.982;2023-06-01T14:45:23;5.40;;;1.08;;
50363;SDS011;36272;59.400;17.982;2023-06-01T14:50:24;1.63;;;1.00;;
50363;SDS011;36272;59.400;17.982;2023-06-01T14:55:26;1.27;;;0.60;;
50363;SDS011;36272;59.400;17.982;2023-06-01T15:00:28;4.30;;;1.13;;
50363;SDS011;36272;59.400;17.982;2023-06-01T15:05:30;2.38;;;1.00;;
50363;SDS011;36272;59.400;17.982;2023-06-01T15:10:32;5.70;;;1.00;;
50363;SDS011;36272;59.400;17.982;2023-06-01T15:15:33;2.55;;;0.90;;
50363;SDS011;36272;59.400;17.982;2023-06-01T15:20:37;1.77;;;0.98;;
50363;SDS011;36272;59.400;17.982;2023-06-01T15:25:39;3.88;;;0.95;;
50363;SDS011;36272;59.400;17.982;2023-06-01T15:30:41;2.88;;;0.88;;
50363;SDS011;36272;59.400;17.982;2023-06-01T15:35:42;4.22;;;1.10;;
50363;SDS011;36272;59.400;17.982;2023-06-01T15:40:45;1.70;;;0.73;;
50363;SDS011;36272;59.400;17.982;2023-06-01T15:45:47;7.88;;;0.90;;
50363;SDS011;36272;59.400;17.982;2023-06-01T15:50:49;3.15;;;0.75;;
50363;SDS011;36272;59.400;17.982;2023-06-01T15:55:50;6.22;;;1.25;;
50363;SDS011;36272;59.400;17.982;2023-06-01T16:00:52;3.75;;;1.10;;
50363;SDS011;36272;59.400;17.982;2023-06-01T16:05:54;5.90;;;1.35;;
50363;SDS011;36272;59.400;17.982;2023-06-01T16:10:56;5.85;;;1.00;;
50363;SDS011;36272;59.400;17.982;2023-06-01T16:15:57;7.95;;;1.02;;
50363;SDS011;36272;59.400;17.982;2023-06-01T16:20:59;4.38;;;1.20;;
50363;SDS011;36272;59.400;17.982;2023-06-01T16:26:00;3.22;;;0.90;;
50363;SDS011;36272;59.400;17.982;2023-06-01T16:31:03;3.00;;;0.70;;
50363;SDS011;36272;59.400;17.982;2023-06-01T16:36:04;5.05;;;0.90;;
50363;SDS011;36272;59.400;17.982;2023-06-01T16:41:06;6.07;;;0.90;;
50363;SDS011;36272;59.400;17.982;2023-06-01T16:46:08;2.75;;;1.02;;
50363;SDS011;36272;59.400;17.982;2023-06-01T16:51:12;2.43;;;0.80;;
50363;SDS011;36272;59.400;17.982;2023-06-01T16:56:14;4.78;;;1.10;;
50363;SDS011;36272;59.400;17.982;2023-06-01T17:01:15;2.55;;;1.08;;
50363;SDS011;36272;59.400;17.982;2023-06-01T17:06:17;2.45;;;0.73;;
50363;SDS011;36272;59.400;17.982;2023-06-01T17:11:21;1.88;;;0.98;;
50363;SDS011;36272;59.400;17.982;2023-06-01T17:16:23;6.80;;;1.63;;
50363;SDS011;36272;59.400;17.982;2023-06-01T17:21:24;4.25;;;1.20;;
50363;SDS011;36272;59.400;17.982;2023-06-01T17:26:26;7.43;;;1.50;;
50363;SDS011;36272;59.400;17.982;2023-06-01T17:31:28;3.67;;;1.27;;
50363;SDS011;36272;59.400;17.982;2023-06-01T17:36:32;4.47;;;1.27;;
50363;SDS011;36272;59.400;17.982;2023-06-01T17:41:34;4.78;;;1.50;;
50363;SDS011;36272;59.400;17.982;2023-06-01T17:46:36;4.75;;;1.35;;
50363;SDS011;36272;59.400;17.982;2023-06-01T17:51:40;9.20;;;1.85;;
50363;SDS011;36272;59.400;17.982;2023-06-01T17:56:42;8.17;;;1.27;;
50363;SDS011;36272;59.400;17.982;2023-06-01T18:01:44;6.75;;;1.42;;
50363;SDS011;36272;59.400;17.982;2023-06-01T18:06:46;7.40;;;1.80;;
50363;SDS011;36272;59.400;17.982;2023-06-01T18:17:15;4.82;;;1.45;;
50363;SDS011;36272;59.400;17.982;2023-06-01T18:22:30;3.35;;;1.13;;
50363;SDS011;36272;59.400;17.982;2023-06-01T18:27:32;7.20;;;1.88;;
50363;SDS011;36272;59.400;17.982;2023-06-01T18:32:34;6.65;;;1.70;;
50363;SDS011;36272;59.400;17.982;2023-06-01T18:37:38;6.85;;;1.55;;
50363;SDS011;36272;59.400;17.982;2023-06-01T18:42:42;7.28;;;1.60;;
50363;SDS011;36272;59.400;17.982;2023-06-01T18:47:44;6.22;;;1.30;;
50363;SDS011;36272;59.400;17.982;2023-06-01T18:52:59;6.00;;;1.40;;
50363;SDS011;36272;59.400;17.982;2023-06-01T18:58:16;6.53;;;1.48;;
50363;SDS011;36272;59.400;17.982;2023-06-01T19:16:20;6.95;;;1.30;;
50363;SDS011;36272;59.400;17.982;2023-06-01T19:40:57;7.72;;;1.40;;
50363;SDS011;36272;59.400;17.982;2023-06-01T19:46:22;4.03;;;1.35;;
50363;SDS011;36272;59.400;17.982;2023-06-01T19:51:24;4.20;;;1.20;;
50363;SDS011;36272;59.400;17.982;2023-06-01T19:56:38;4.75;;;1.40;;
50363;SDS011;36272;59.400;17.982;2023-06-01T20:01:53;4.05;;;1.20;;
50363;SDS011;36272;59.400;17.982;2023-06-01T20:07:04;3.60;;;1.25;;
50363;SDS011;36272;59.400;17.982;2023-06-01T20:12:18;6.18;;;1.95;;
50363;SDS011;36272;59.400;17.982;2023-06-01T20:17:22;9.15;;;1.52;;
50363;SDS011;36272;59.400;17.982;2023-06-01T20:22:40;6.85;;;1.77;;
50363;SDS011;36272;59.400;17.982;2023-06-01T20:27:47;4.32;;;1.40;;
50363;SDS011;36272;59.400;17.982;2023-06-01T20:32:48;3.72;;;1.60;;
50363;SDS011;36272;59.400;17.982;2023-06-01T20:37:56;6.63;;;1.35;;
50363;SDS011;36272;59.400;17.982;2023-06-01T20:43:00;7.70;;;1.67;;
50363;SDS011;36272;59.400;17.982;2023-06-01T20:48:06;2.53;;;1.30;;
50363;SDS011;36272;59.400;17.982;2023-06-01T20:53:10;10.18;;;1.50;;
50363;SDS011;36272;59.400;17.982;2023-06-01T20:58:11;7.30;;;1.98;;
50363;SDS011;36272;59.400;17.982;2023-06-01T21:03:13;4.78;;;1.90;;
50363;SDS011;36272;59.400;17.982;2023-06-01T21:08:14;8.40;;;1.90;;
50363;SDS011;36272;59.400;17.982;2023-06-01T21:13:19;5.47;;;1.70;;
50363;SDS011;36272;59.400;17.982;2023-06-01T21:18:28;5.57;;;1.83;;
50363;SDS011;36272;59.400;17.982;2023-06-01T21:23:36;9.90;;;2.13;;
50363;SDS011;36272;59.400;17.982;2023-06-01T21:28:38;8.43;;;2.03;;
50363;SDS011;36272;59.400;17.982;2023-06-01T21:33:40;7.65;;;2.13;;
50363;SDS011;36272;59.400;17.982;2023-06-01T21:38:47;7.20;;;1.92;;
50363;SDS011;36272;59.400;17.982;2023-06-01T21:43:57;6.35;;;1.85;;
50363;SDS011;36272;59.400;17.982;2023-06-01T21:48:59;9.85;;;2.03;;
50363;SDS011;36272;59.400;17.982;2023-06-01T21:54:01;6.90;;;1.80;;
50363;SDS011;36272;59.400;17.982;2023-06-01T21:59:02;6.90;;;1.90;;
50363;SDS011;36272;59.400;17.982;2023-06-01T22:04:04;5.70;;;1.90;;
50363;SDS011;36272;59.400;17.982;2023-06-01T22:09:08;6.10;;;2.13;;
50363;SDS011;36272;59.400;17.982;2023-06-01T22:14:10;5.82;;;1.90;;
50363;SDS011;36272;59.400;17.982;2023-06-01T22:19:12;10.85;;;1.90;;
50363;SDS011;36272;59.400;17.982;2023-06-01T22:24:13;5.90;;;1.45;;
50363;SDS011;36272;59.400;17.982;2023-06-01T22:29:17;2.22;;;1.10;;
50363;SDS011;36272;59.400;17.982;2023-06-01T22:34:19;2.10;;;0.60;;
50363;SDS011;36272;59.400;17.982;2023-06-01T22:39:21;3.08;;;0.90;;
50363;SDS011;36272;59.400;17.982;2023-06-01T22:44:22;3.55;;;0.90;;
50363;SDS011;36272;59.400;17.982;2023-06-01T22:49:24;3.20;;;0.75;;
50363;SDS011;36272;59.400;17.982;2023-06-01T22:54:26;4.75;;;0.82;;
50363;SDS011;36272;59.400;17.982;2023-06-01T22:59:28;1.70;;;0.70;;
50363;SDS011;36272;59.400;17.982;2023-06-01T23:04:30;1.15;;;0.52;;
50363;SDS011;36272;59.400;17.982;2023-06-01T23:09:36;4.45;;;0.80;;
50363;SDS011;36272;59.400;17.982;2023-06-01T23:14:43;1.83;;;0.40;;
50363;SDS011;36272;59.400;17.982;2023-06-01T23:19:48;3.10;;;0.60;;
50363;SDS011;36272;59.400;17.982;2023-06-01T23:24:50;3.38;;;0.55;;
50363;SDS011;36272;59.400;17.982;2023-06-01T23:29:52;1.25;;;0.52;;
50363;SDS011;36272;59.400;17.982;2023-06-01T23:34:56;3.33;;;0.68;;
50363;SDS011;36272;59.400;17.982;2023-06-01T23:39:58;3.30;;;0.50;;
50363;SDS011;36272;59.400;17.982;2023-06-01T23:44:59;1.48;;;0.50;;
50363;SDS011;36272;59.400;17.982;2023-06-01T23:50:03;2.40;;;0.50;;
50363;SDS011;36272;59.400;17.982;2023-06-01T23:55:12;0.85;;;0.30;;
